Time;durP1;ratioP1;P1;durP2;ratioP2;P2;SDS_P1;SDS_P2;PMS_P1;PMS_P2;Temp;Humidity;BMP_temperature;BMP_pressure;BME280_temperature;BME280_humidity;BME280_pressure;Samples;Min_cycle;Max_cycle;Signal;HPM_P1;HPM_P2
2023/07/26 00:01:32;;;;;;;5.75;3.53;;;12.80;99.90;;;;;;4989415;28;20026;-82
2023/07/26 00:03:58;;;;;;;4.25;3.30;;;12.80;99.90;;;;;;4990295;28;20034;-84
2023/07/26 00:06:29;;;;;;;5.40;3.20;;;12.70;99.90;;;;;;4989768;28;20053;-82
2023/07/26 00:08:54;;;;;;;5.15;3.33;;;12.80;99.90;;;;;;4990650;28;20026;-83
2023/07/26 00:11:20;;;;;;;6.38;3.65;;;12.80;99.90;;;;;;4990022;28;20167;-83
2023/07/26 00:13:45;;;;;;;5.00;3.60;;;12.80;99.90;;;;;;4990641;28;20033;-84
2023/07/26 00:16:11;;;;;;;6.55;3.60;;;12.80;99.90;;;;;;4988262;28;20786;-84
2023/07/26 00:18:39;;;;;;;5.65;3.53;;;12.80;99.90;;;;;;4988814;28;20041;-83
2023/07/26 00:21:05;;;;;;;10.90;3.80;;;12.70;99.90;;;;;;4989688;28;20026;-83
2023/07/26 00:23:30;;;;;;;7.15;3.60;;;12.80;99.90;;;;;;4988984;28;20030;-83
2023/07/26 00:25:56;;;;;;;6.18;3.45;;;12.70;99.90;;;;;;4989890;28;20034;-84
2023/07/26 00:28:22;;;;;;;5.38;3.38;;;12.80;99.90;;;;;;4989393;28;20156;-84
2023/07/26 00:30:49;;;;;;;6.15;3.70;;;12.90;99.90;;;;;;4989988;28;20061;-82
2023/07/26 00:33:15;;;;;;;6.82;4.25;;;12.80;99.90;;;;;;4989719;28;20045;-83
2023/07/26 00:35:42;;;;;;;5.97;4.10;;;12.90;99.90;;;;;;4989905;28;20030;-83
2023/07/26 00:38:08;;;;;;;7.43;4.70;;;12.80;99.90;;;;;;4988971;28;20029;-83
2023/07/26 00:40:33;;;;;;;7.85;4.97;;;12.80;99.90;;;;;;4989777;28;20048;-84
2023/07/26 00:42:59;;;;;;;5.55;4.68;;;12.80;99.90;;;;;;4990324;28;20125;-82
2023/07/26 00:45:27;;;;;;;7.35;4.82;;;12.80;99.90;;;;;;4990189;28;20030;-83
2023/07/26 00:47:52;;;;;;;8.18;4.70;;;12.80;99.90;;;;;;4989608;28;20104;-83
2023/07/26 00:50:19;;;;;;;6.47;5.20;;;12.80;99.90;;;;;;4989460;28;20028;-83
2023/07/26 00:52:47;;;;;;;7.65;5.32;;;12.70;99.90;;;;;;4988657;28;20113;-83
2023/07/26 00:55:13;;;;;;;5.93;4.93;;;12.80;99.90;;;;;;4989976;28;20108;-83
2023/07/26 00:57:40;;;;;;;6.75;5.43;;;12.80;99.90;;;;;;4989268;28;20022;-82
2023/07/26 01:00:07;;;;;;;9.27;5.63;;;12.70;99.90;;;;;;4990182;28;20317;-83
2023/07/26 01:02:33;;;;;;;6.97;5.53;;;12.80;99.90;;;;;;4989095;28;20038;-84
2023/07/26 01:04:58;;;;;;;10.57;5.80;;;12.80;99.90;;;;;;4988883;28;20063;-85
2023/07/26 01:07:50;;;;;;;10.57;5.82;;;12.80;99.90;;;;;;4988367;28;20083;-84
2023/07/26 01:10:23;;;;;;;7.20;5.82;;;12.80;99.90;;;;;;4985607;28;20055;-83
2023/07/26 01:13:07;;;;;;;8.45;5.78;;;12.80;99.90;;;;;;4990469;28;20156;-83
2023/07/26 01:15:37;;;;;;;8.75;6.10;;;12.80;99.90;;;;;;4989823;28;20034;-83
2023/07/26 01:18:10;;;;;;;10.38;6.00;;;12.70;99.90;;;;;;4988566;28;20054;-84
2023/07/26 01:20:36;;;;;;;8.07;5.97;;;12.70;99.90;;;;;;4989784;28;20081;-81
2023/07/26 01:23:01;;;;;;;8.45;5.70;;;12.70;99.90;;;;;;4990265;28;20117;-82
2023/07/26 01:25:27;;;;;;;8.95;5.80;;;12.70;99.90;;;;;;4990092;28;20182;-83
2023/07/26 01:27:52;;;;;;;9.05;5.47;;;12.70;99.90;;;;;;4991167;28;20068;-83
2023/07/26 01:30:18;;;;;;;8.85;5.68;;;12.70;99.90;;;;;;4990225;28;20021;-83
2023/07/26 01:32:46;;;;;;;9.48;5.68;;;12.70;99.90;;;;;;4989678;28;21455;-83
2023/07/26 01:35:12;;;;;;;8.93;6.05;;;12.70;99.90;;;;;;4989446;28;20614;-83
2023/07/26 01:37:38;;;;;;;10.52;6.18;;;12.70;99.90;;;;;;4988725;28;20028;-83
2023/07/26 01:40:07;;;;;;;7.30;6.00;;;12.70;99.90;;;;;;4989701;28;20775;-82
2023/07/26 01:42:34;;;;;;;8.77;6.30;;;12.70;99.90;;;;;;4987997;28;20105;-82
2023/07/26 01:45:03;;;;;;;10.85;6.70;;;12.70;99.90;;;;;;4989661;28;20092;-82
2023/07/26 01:47:29;;;;;;;9.88;6.03;;;12.70;99.90;;;;;;4989378;28;20034;-83
2023/07/26 01:49:55;;;;;;;8.90;6.75;;;12.70;99.90;;;;;;4989104;28;20034;-83
2023/07/26 01:52:21;;;;;;;8.40;6.68;;;12.60;99.90;;;;;;4988964;28;20022;-83
2023/07/26 01:54:47;;;;;;;9.50;6.07;;;12.60;99.90;;;;;;4989926;28;20996;-83
2023/07/26 01:57:12;;;;;;;9.55;7.00;;;12.60;99.90;;;;;;4988790;28;20027;-83
2023/07/26 01:59:38;;;;;;;10.95;6.82;;;12.60;99.90;;;;;;4988779;28;20018;-83
2023/07/26 02:02:04;;;;;;;12.25;6.72;;;12.60;99.90;;;;;;4989045;28;20026;-83
2023/07/26 02:04:29;;;;;;;12.48;7.30;;;12.60;99.90;;;;;;4988962;28;20497;-83
2023/07/26 02:06:55;;;;;;;8.30;7.05;;;12.60;99.90;;;;;;4988113;28;20117;-83
2023/07/26 02:09:20;;;;;;;9.55;6.97;;;12.50;99.90;;;;;;4989778;28;20107;-84
2023/07/26 02:11:46;;;;;;;10.60;6.95;;;12.50;99.90;;;;;;4989071;28;20030;-83
2023/07/26 02:14:11;;;;;;;9.93;6.75;;;12.50;99.90;;;;;;4989777;28;20018;-83
2023/07/26 02:16:37;;;;;;;9.30;7.53;;;12.50;99.90;;;;;;4987901;28;20026;-83
2023/07/26 02:19:03;;;;;;;12.63;7.20;;;12.50;99.90;;;;;;4986251;28;20054;-83
2023/07/26 02:21:28;;;;;;;8.65;7.25;;;12.50;99.90;;;;;;4986782;28;20033;-83
2023/07/26 02:23:54;;;;;;;10.05;7.35;;;12.40;99.90;;;;;;4987286;28;20056;-82
2023/07/26 02:26:20;;;;;;;12.10;8.18;;;12.40;99.90;;;;;;4986843;28;20022;-83
2023/07/26 02:28:45;;;;;;;14.18;7.95;;;12.40;99.90;;;;;;4987003;28;20022;-83
2023/07/26 02:31:11;;;;;;;10.23;7.75;;;12.40;99.90;;;;;;4986111;28;20033;-83
2023/07/26 02:33:36;;;;;;;14.63;7.88;;;12.40;99.90;;;;;;4988463;28;20161;-83
2023/07/26 02:36:03;;;;;;;12.13;7.80;;;12.30;99.90;;;;;;4987771;28;20485;-84
2023/07/26 02:38:28;;;;;;;12.25;7.30;;;12.40;99.90;;;;;;4988243;28;20160;-82
2023/07/26 02:40:54;;;;;;;9.68;7.90;;;12.40;99.90;;;;;;4987042;28;20026;-83
2023/07/26 02:43:19;;;;;;;9.93;7.05;;;12.40;99.90;;;;;;4988538;28;20042;-83
2023/07/26 02:45:45;;;;;;;9.10;6.97;;;12.40;99.90;;;;;;4988394;28;20037;-83
2023/07/26 02:48:10;;;;;;;11.65;7.47;;;12.40;99.90;;;;;;4986322;28;20373;-83
2023/07/26 02:50:36;;;;;;;9.88;7.72;;;12.50;99.90;;;;;;4987388;28;21331;-83
2023/07/26 02:53:01;;;;;;;11.93;7.55;;;12.40;99.90;;;;;;4990530;28;20041;-83
2023/07/26 02:55:27;;;;;;;8.68;7.43;;;12.40;99.90;;;;;;4990202;28;20704;-83
2023/07/26 02:57:52;;;;;;;11.00;7.60;;;12.50;99.90;;;;;;4988762;28;20033;-82
2023/07/26 03:00:18;;;;;;;9.00;7.15;;;12.50;99.90;;;;;;4990133;28;20039;-83
2023/07/26 03:02:43;;;;;;;9.65;7.28;;;12.50;99.90;;;;;;4990852;28;20085;-82
2023/07/26 03:05:09;;;;;;;13.77;7.20;;;12.50;99.90;;;;;;4990205;28;20036;-83
2023/07/26 03:07:34;;;;;;;9.57;7.68;;;12.50;99.90;;;;;;4991169;28;20168;-82
2023/07/26 03:10:00;;;;;;;10.70;7.55;;;12.50;99.90;;;;;;4989311;28;20109;-83
2023/07/26 03:12:25;;;;;;;12.05;7.70;;;12.50;99.90;;;;;;4990940;28;20333;-82
2023/07/26 03:14:51;;;;;;;11.32;7.70;;;12.50;99.90;;;;;;4991265;28;20026;-83
2023/07/26 03:17:17;;;;;;;8.82;7.78;;;12.50;99.90;;;;;;4992891;28;20031;-81
2023/07/26 03:19:43;;;;;;;13.82;8.13;;;12.50;99.90;;;;;;4994264;28;20019;-82
2023/07/26 03:22:09;;;;;;;10.45;7.60;;;12.50;99.90;;;;;;4994324;28;20093;-83
2023/07/26 03:24:35;;;;;;;10.70;7.60;;;12.40;99.90;;;;;;4993356;28;20044;-82
2023/07/26 03:27:00;;;;;;;10.20;7.70;;;12.40;99.90;;;;;;4994008;28;20085;-83
2023/07/26 03:29:26;;;;;;;9.05;7.80;;;12.40;99.90;;;;;;4995651;28;20026;-83
2023/07/26 03:31:51;;;;;;;12.75;7.63;;;12.40;99.90;;;;;;4995787;28;20597;-82
2023/07/26 03:34:17;;;;;;;9.18;7.75;;;12.40;99.90;;;;;;4995859;28;20038;-81
2023/07/26 03:36:42;;;;;;;9.43;7.22;;;12.40;99.90;;;;;;4991283;28;20030;-83
2023/07/26 03:39:08;;;;;;;11.13;7.38;;;12.40;99.90;;;;;;4992675;28;20022;-83
2023/07/26 03:41:33;;;;;;;11.65;7.70;;;12.40;99.90;;;;;;4991667;28;20014;-84
2023/07/26 03:43:59;;;;;;;10.85;7.80;;;12.50;99.90;;;;;;4992362;28;20070;-82
2023/07/26 03:46:24;;;;;;;12.18;7.75;;;12.40;99.90;;;;;;4991221;28;20026;-83
2023/07/26 03:48:50;;;;;;;10.38;8.13;;;12.40;99.90;;;;;;4992450;28;20022;-82
2023/07/26 03:51:15;;;;;;;9.93;8.30;;;12.40;99.90;;;;;;4990357;28;20031;-83
2023/07/26 03:53:41;;;;;;;13.10;9.02;;;12.30;99.90;;;;;;4991714;28;20037;-82
2023/07/26 03:56:06;;;;;;;12.85;9.32;;;12.30;99.90;;;;;;4990887;28;20026;-83
2023/07/26 03:58:32;;;;;;;12.43;9.80;;;12.40;99.90;;;;;;4991492;28;20027;-84
2023/07/26 04:00:58;;;;;;;14.00;10.25;;;12.40;99.90;;;;;;4990729;28;20061;-83
2023/07/26 04:03:24;;;;;;;11.35;9.38;;;12.40;99.90;;;;;;4991020;28;20066;-82
2023/07/26 04:05:49;;;;;;;13.38;9.38;;;12.40;99.90;;;;;;4990858;28;20192;-83
2023/07/26 04:08:15;;;;;;;11.30;9.70;;;12.50;99.90;;;;;;4990764;28;20042;-84
2023/07/26 04:10:40;;;;;;;13.45;10.02;;;12.50;99.90;;;;;;4990826;28;20046;-83
2023/07/26 04:13:06;;;;;;;14.82;11.32;;;12.50;99.90;;;;;;4990900;28;20038;-82
2023/07/26 04:15:31;;;;;;;16.63;12.23;;;12.50;99.90;;;;;;4988266;28;20038;-83
2023/07/26 04:17:57;;;;;;;15.38;12.65;;;12.50;99.90;;;;;;4988103;28;20065;-83
2023/07/26 04:20:23;;;;;;;16.08;12.70;;;12.50;99.90;;;;;;4988275;28;20531;-82
2023/07/26 04:22:49;;;;;;;15.98;12.63;;;12.50;99.90;;;;;;4989205;28;20396;-83
2023/07/26 04:25:15;;;;;;;17.65;13.07;;;12.50;99.90;;;;;;4988024;28;20043;-82
2023/07/26 04:27:40;;;;;;;18.52;13.25;;;12.50;99.90;;;;;;4988404;28;20035;-83
2023/07/26 04:30:06;;;;;;;18.52;13.55;;;12.50;99.90;;;;;;4989911;28;20037;-83
2023/07/26 04:32:32;;;;;;;20.02;13.02;;;12.50;99.90;;;;;;4988323;28;20034;-83
2023/07/26 04:34:58;;;;;;;18.77;12.70;;;12.60;99.90;;;;;;4988334;28;20413;-81
2023/07/26 04:37:23;;;;;;;20.20;13.02;;;12.60;99.90;;;;;;4988734;28;20129;-83
2023/07/26 04:39:49;;;;;;;17.75;14.00;;;12.70;99.90;;;;;;4989859;28;20026;-83
2023/07/26 04:42:15;;;;;;;21.95;13.45;;;12.70;99.90;;;;;;4985946;28;20026;-83
2023/07/26 04:44:41;;;;;;;17.75;14.48;;;12.70;99.90;;;;;;4978772;28;20034;-81
2023/07/26 04:47:07;;;;;;;22.77;15.38;;;12.70;99.90;;;;;;4985681;28;20029;-83
2023/07/26 04:49:32;;;;;;;20.05;15.30;;;12.70;99.90;;;;;;4985085;28;20057;-83
2023/07/26 04:51:58;;;;;;;21.00;15.73;;;12.70;99.90;;;;;;4987992;28;21421;-83
2023/07/26 04:54:23;;;;;;;19.60;15.77;;;12.70;99.90;;;;;;4984855;28;20069;-83
2023/07/26 04:56:49;;;;;;;20.17;16.33;;;12.70;99.90;;;;;;4985830;28;20116;-83
2023/07/26 04:59:15;;;;;;;24.00;17.98;;;12.70;99.90;;;;;;4984733;28;21391;-83
2023/07/26 05:01:41;;;;;;;20.42;16.10;;;12.70;99.90;;;;;;4985041;28;20038;-83
2023/07/26 05:04:06;;;;;;;21.83;16.17;;;12.60;99.90;;;;;;4986955;28;20038;-82
2023/07/26 05:06:32;;;;;;;24.80;17.35;;;12.60;99.90;;;;;;4986132;28;20161;-83
2023/07/26 05:08:59;;;;;;;20.33;15.50;;;12.70;99.90;;;;;;4986077;28;20397;-83
2023/07/26 05:11:25;;;;;;;18.58;15.50;;;12.70;99.90;;;;;;4985520;28;20461;-83
2023/07/26 05:13:51;;;;;;;26.15;16.98;;;12.70;99.90;;;;;;4986005;28;20057;-82
2023/07/26 05:16:16;;;;;;;19.77;16.52;;;12.80;99.90;;;;;;4985254;28;20113;-83
2023/07/26 05:18:42;;;;;;;21.02;16.27;;;12.80;99.90;;;;;;4987172;28;20038;-83
2023/07/26 05:21:07;;;;;;;27.98;16.52;;;12.90;99.90;;;;;;4986091;28;20061;-82
2023/07/26 05:23:33;;;;;;;25.33;16.20;;;13.00;99.90;;;;;;4984896;28;20054;-83
2023/07/26 05:25:59;;;;;;;22.15;15.88;;;13.10;99.90;;;;;;4984610;28;20037;-82
2023/07/26 05:28:24;;;;;;;20.35;15.68;;;13.10;99.90;;;;;;4986772;28;20032;-83
2023/07/26 05:30:50;;;;;;;22.13;16.92;;;13.20;99.90;;;;;;4985418;28;20108;-82
2023/07/26 05:33:16;;;;;;;22.63;17.17;;;13.20;99.90;;;;;;4987328;28;20045;-83
2023/07/26 05:35:41;;;;;;;22.90;16.60;;;13.10;99.90;;;;;;4987892;28;20037;-83
2023/07/26 05:38:07;;;;;;;21.50;17.13;;;13.10;99.90;;;;;;4984340;28;20562;-82
2023/07/26 05:40:33;;;;;;;19.58;15.45;;;13.10;99.90;;;;;;4986638;28;20133;-83
2023/07/26 05:42:58;;;;;;;20.65;17.25;;;13.10;99.90;;;;;;4984008;28;20039;-82
2023/07/26 05:45:24;;;;;;;24.65;17.52;;;13.10;99.90;;;;;;4986005;28;20036;-82
2023/07/26 05:47:49;;;;;;;23.75;17.02;;;13.10;99.90;;;;;;4985398;28;20034;-83
2023/07/26 05:50:15;;;;;;;22.67;17.15;;;13.00;99.90;;;;;;4984087;28;20037;-83
2023/07/26 05:52:40;;;;;;;20.55;16.98;;;13.00;99.90;;;;;;4984029;28;20025;-84
2023/07/26 05:55:07;;;;;;;24.00;17.95;;;13.10;99.90;;;;;;4983602;28;20488;-83
2023/07/26 05:57:32;;;;;;;22.95;18.95;;;13.10;99.90;;;;;;4984144;28;21470;-83
2023/07/26 05:59:59;;;;;;;19.83;16.70;;;13.00;99.90;;;;;;4985139;28;20034;-83
2023/07/26 06:02:25;;;;;;;21.77;17.77;;;13.00;99.90;;;;;;4981442;28;20050;-84
2023/07/26 06:04:52;;;;;;;24.48;18.17;;;13.00;99.90;;;;;;4981690;28;20112;-84
2023/07/26 06:07:18;;;;;;;25.63;17.58;;;13.00;99.90;;;;;;4984524;28;20038;-83
2023/07/26 06:09:43;;;;;;;21.25;17.67;;;13.00;99.90;;;;;;4984865;28;20481;-82
2023/07/26 06:12:10;;;;;;;21.58;16.67;;;13.00;99.90;;;;;;4984136;28;20040;-83
2023/07/26 06:14:36;;;;;;;18.42;16.13;;;13.00;99.90;;;;;;4985771;28;20026;-84
2023/07/26 06:17:01;;;;;;;20.73;15.68;;;13.10;99.90;;;;;;4981907;28;20122;-83
2023/07/26 06:19:27;;;;;;;21.17;16.70;;;13.00;99.90;;;;;;4982342;28;20034;-83
2023/07/26 06:21:55;;;;;;;19.48;15.52;;;12.90;99.90;;;;;;4986648;28;20026;-83
2023/07/26 06:24:25;;;;;;;18.02;13.90;;;12.90;99.90;;;;;;4986445;28;20035;-84
2023/07/26 06:26:54;;;;;;;19.02;16.02;;;12.90;99.90;;;;;;4985186;28;20057;-83
2023/07/26 06:29:22;;;;;;;17.10;15.27;;;12.80;99.90;;;;;;4985362;28;20037;-84
2023/07/26 06:31:48;;;;;;;18.05;14.82;;;12.90;99.90;;;;;;4984017;28;20038;-84
2023/07/26 06:34:13;;;;;;;19.58;15.50;;;12.80;99.90;;;;;;4978226;28;20054;-83
2023/07/26 06:36:39;;;;;;;21.08;15.80;;;12.80;99.90;;;;;;4976367;28;20087;-84
2023/07/26 06:39:05;;;;;;;17.70;15.50;;;12.90;99.90;;;;;;4974611;28;20041;-83
2023/07/26 06:41:30;;;;;;;18.67;15.45;;;12.90;99.90;;;;;;4974382;28;20023;-83
2023/07/26 06:43:56;;;;;;;20.33;14.80;;;12.90;99.90;;;;;;4976828;28;20042;-83
2023/07/26 06:46:22;;;;;;;20.35;14.55;;;13.00;99.90;;;;;;4975969;28;20018;-83
2023/07/26 06:48:47;;;;;;;19.08;14.77;;;13.00;99.90;;;;;;4976225;28;20030;-83
2023/07/26 06:51:13;;;;;;;23.55;13.70;;;13.10;99.90;;;;;;4976153;28;20050;-82
2023/07/26 06:53:38;;;;;;;14.57;12.25;;;13.10;99.90;;;;;;4978380;28;20040;-83
2023/07/26 06:56:04;;;;;;;15.73;11.75;;;13.10;99.90;;;;;;4979456;28;20114;-83
2023/07/26 06:58:30;;;;;;;12.27;10.02;;;13.10;99.90;;;;;;4979034;28;20039;-84
2023/07/26 07:00:56;;;;;;;16.60;10.98;;;13.20;99.90;;;;;;4980355;28;20030;-83
2023/07/26 07:03:21;;;;;;;12.73;9.38;;;13.20;99.90;;;;;;4976887;28;20134;-84
2023/07/26 07:05:47;;;;;;;12.35;8.27;;;13.30;99.90;;;;;;4978597;28;20137;-83
2023/07/26 07:08:12;;;;;;;10.15;8.95;;;13.30;99.90;;;;;;4980785;28;20110;-83
2023/07/26 07:10:38;;;;;;;9.65;7.95;;;13.30;99.90;;;;;;4980667;28;20914;-83
2023/07/26 07:13:04;;;;;;;10.48;7.43;;;13.30;99.90;;;;;;4977663;28;20090;-83
2023/07/26 07:15:30;;;;;;;13.77;8.02;;;13.30;99.90;;;;;;4977851;28;20049;-83
2023/07/26 07:17:55;;;;;;;12.18;7.20;;;13.40;99.90;;;;;;4977271;28;20473;-84
2023/07/26 07:20:21;;;;;;;8.30;6.03;;;13.40;99.90;;;;;;4979852;28;20030;-83
2023/07/26 07:22:46;;;;;;;8.90;5.78;;;13.50;99.90;;;;;;4979911;28;20041;-83
2023/07/26 07:25:12;;;;;;;10.00;5.85;;;13.50;99.90;;;;;;4979423;28;20089;-83
2023/07/26 07:27:38;;;;;;;8.48;5.80;;;13.50;99.90;;;;;;4977971;28;20122;-83
2023/07/26 07:30:04;;;;;;;6.45;5.43;;;13.50;99.90;;;;;;4978601;28;20030;-83
2023/07/26 07:32:29;;;;;;;10.35;5.68;;;13.50;99.90;;;;;;4975210;28;20040;-84
2023/07/26 07:34:55;;;;;;;9.25;5.68;;;13.60;99.90;;;;;;4976866;28;20030;-83
2023/07/26 07:37:20;;;;;;;8.63;4.93;;;13.60;99.90;;;;;;4979665;28;20485;-83
2023/07/26 07:39:46;;;;;;;8.02;5.47;;;13.60;99.90;;;;;;4986235;28;20240;-83
2023/07/26 07:42:11;;;;;;;7.07;5.20;;;13.60;99.90;;;;;;4986427;28;20117;-83
2023/07/26 07:44:38;;;;;;;6.57;4.97;;;13.60;99.90;;;;;;4985339;28;20046;-83
2023/07/26 07:47:04;;;;;;;7.50;6.38;;;13.70;99.90;;;;;;4987327;28;20052;-83
2023/07/26 07:49:29;;;;;;;7.65;5.22;;;13.70;99.90;;;;;;4985796;28;20677;-83
2023/07/26 07:51:55;;;;;;;7.00;5.95;;;13.70;99.90;;;;;;4987628;28;20027;-83
2023/07/26 07:54:20;;;;;;;8.82;5.60;;;13.70;99.90;;;;;;4987397;28;20030;-83
2023/07/26 07:56:47;;;;;;;8.73;5.93;;;13.80;99.90;;;;;;4982098;28;20029;-83
2023/07/26 07:59:13;;;;;;;8.77;6.70;;;13.80;99.90;;;;;;4977147;28;20112;-84
2023/07/26 08:01:39;;;;;;;9.32;6.05;;;13.80;99.90;;;;;;4978330;28;20567;-84
2023/07/26 08:04:04;;;;;;;12.55;7.20;;;13.80;99.90;;;;;;4980072;28;20037;-83
2023/07/26 08:06:32;;;;;;;10.35;6.47;;;13.80;99.90;;;;;;4978281;28;21384;-83
2023/07/26 08:08:57;;;;;;;10.10;7.00;;;13.80;99.90;;;;;;4977199;28;20041;-83
2023/07/26 08:11:23;;;;;;;9.40;7.00;;;13.80;99.90;;;;;;4977054;28;20026;-84
2023/07/26 08:13:48;;;;;;;9.55;6.10;;;13.80;99.90;;;;;;4978123;28;20692;-83
2023/07/26 08:16:14;;;;;;;9.23;6.35;;;13.70;99.90;;;;;;4978070;28;20026;-83
2023/07/26 08:18:39;;;;;;;10.50;6.57;;;13.70;99.90;;;;;;4977279;28;20500;-83
2023/07/26 08:21:05;;;;;;;9.43;5.63;;;13.60;99.90;;;;;;4978398;28;20034;-83
2023/07/26 08:23:31;;;;;;;8.73;5.75;;;13.60;99.90;;;;;;4974891;28;20840;-84
2023/07/26 08:26:03;;;;;;;6.53;5.15;;;13.60;99.90;;;;;;4977172;28;20034;-83
2023/07/26 08:28:28;;;;;;;7.65;5.03;;;13.60;99.90;;;;;;4976991;28;20058;-83
2023/07/26 08:30:54;;;;;;;6.13;4.43;;;13.60;99.90;;;;;;4979538;28;20027;-84
2023/07/26 08:33:19;;;;;;;10.35;4.68;;;13.50;99.90;;;;;;4976777;28;20560;-83
2023/07/26 08:35:45;;;;;;;7.68;4.75;;;13.50;99.90;;;;;;4974868;28;20120;-83
2023/07/26 08:38:10;;;;;;;6.45;4.50;;;13.60;99.90;;;;;;4974615;28;20029;-83
2023/07/26 08:40:36;;;;;;;5.80;4.40;;;13.60;99.90;;;;;;4976365;28;20026;-83
2023/07/26 08:43:04;;;;;;;6.70;3.75;;;13.70;99.90;;;;;;4978807;28;20073;-82
2023/07/26 08:45:32;;;;;;;6.22;3.78;;;13.80;99.90;;;;;;4977508;28;20038;-82
2023/07/26 08:47:59;;;;;;;6.22;3.47;;;13.90;99.90;;;;;;4975554;28;20038;-82
2023/07/26 08:50:25;;;;;;;6.20;3.47;;;14.00;99.90;;;;;;4976981;28;20189;-82
2023/07/26 08:52:50;;;;;;;5.45;3.80;;;14.10;99.90;;;;;;4979638;28;20493;-82
2023/07/26 08:55:16;;;;;;;4.97;3.20;;;14.30;99.90;;;;;;4978085;28;20034;-82
2023/07/26 08:57:43;;;;;;;6.75;3.38;;;14.50;99.90;;;;;;4976459;28;20113;-83
2023/07/26 09:00:11;;;;;;;6.53;3.50;;;14.70;99.90;;;;;;4977541;28;20040;-83
2023/07/26 09:02:39;;;;;;;6.70;2.78;;;15.00;99.90;;;;;;4977738;28;20037;-83
2023/07/26 09:05:05;;;;;;;4.93;3.08;;;15.30;99.90;;;;;;4978450;28;20964;-83
2023/07/26 09:07:31;;;;;;;5.20;2.97;;;15.50;99.90;;;;;;4976377;28;20358;-82
2023/07/26 09:09:56;;;;;;;6.53;2.92;;;15.50;99.90;;;;;;4978578;28;20030;-83
2023/07/26 09:12:27;;;;;;;4.45;2.85;;;15.60;99.90;;;;;;4977787;28;20030;-83
2023/07/26 09:15:05;;;;;;;7.22;2.65;;;15.70;99.90;;;;;;4979241;28;20030;-83
2023/07/26 09:17:37;;;;;;;6.57;3.05;;;15.80;99.90;;;;;;4978493;28;20061;-82
2023/07/26 09:20:03;;;;;;;5.30;2.85;;;15.90;99.90;;;;;;4977633;28;20605;-82
2023/07/26 09:22:30;;;;;;;7.18;3.40;;;16.10;99.90;;;;;;4976610;28;20820;-82
2023/07/26 09:24:55;;;;;;;8.23;3.13;;;16.30;99.90;;;;;;4979641;28;20935;-81
2023/07/26 09:27:21;;;;;;;4.38;2.90;;;16.50;99.90;;;;;;4976943;28;20035;-81
2023/07/26 09:29:55;;;;;;;5.25;2.90;;;16.60;99.90;;;;;;4978552;28;20030;-83
2023/07/26 09:32:29;;;;;;;5.25;2.75;;;16.90;99.90;;;;;;4977034;28;20030;-83
2023/07/26 09:34:59;;;;;;;4.00;2.42;;;17.00;99.90;;;;;;4977731;28;20950;-83
2023/07/26 09:37:25;;;;;;;5.07;2.40;;;17.20;99.90;;;;;;4968672;28;20034;-81
2023/07/26 09:39:50;;;;;;;5.15;2.60;;;17.30;99.90;;;;;;4979144;28;20034;-82
2023/07/26 09:42:16;;;;;;;4.40;2.25;;;17.40;99.90;;;;;;4978336;28;20411;-82
2023/07/26 09:44:45;;;;;;;6.13;2.53;;;17.40;99.90;;;;;;4978995;28;20038;-81
2023/07/26 09:47:11;;;;;;;3.78;2.20;;;17.50;99.90;;;;;;4976241;28;20097;-83
2023/07/26 09:49:49;;;;;;;5.32;2.50;;;17.80;99.90;;;;;;4979310;28;20688;-81
2023/07/26 09:52:19;;;;;;;5.68;2.25;;;17.90;99.90;;;;;;4979317;28;20026;-81
2023/07/26 09:54:46;;;;;;;4.88;2.42;;;17.90;99.90;;;;;;4982629;28;21080;-82
2023/07/26 09:57:15;;;;;;;5.20;2.53;;;17.90;99.90;;;;;;4986806;28;21379;-82
2023/07/26 09:59:41;;;;;;;6.50;2.47;;;17.90;99.90;;;;;;4988649;28;20094;-82
2023/07/26 10:02:09;;;;;;;3.28;2.08;;;18.10;99.90;;;;;;4986501;28;20037;-81
2023/07/26 10:04:53;;;;;;;6.95;2.85;;;18.40;99.90;;;;;;4987731;28;20034;-82
2023/07/26 10:07:20;;;;;;;5.82;1.73;;;18.50;99.90;;;;;;4987030;28;20018;-79
2023/07/26 10:09:47;;;;;;;4.80;2.00;;;18.80;99.90;;;;;;4987785;28;20045;-82
2023/07/26 10:12:14;;;;;;;2.33;1.65;;;19.00;99.90;;;;;;4985872;28;20165;-80
2023/07/26 10:14:40;;;;;;;4.18;1.60;;;19.30;99.90;;;;;;4988334;28;20023;-79
2023/07/26 10:17:06;;;;;;;2.78;1.60;;;19.50;99.90;;;;;;4985951;28;20088;-81
2023/07/26 10:19:32;;;;;;;3.70;2.10;;;19.60;99.90;;;;;;4986781;28;20022;-79
2023/07/26 10:21:58;;;;;;;5.70;2.42;;;19.50;99.90;;;;;;4986703;28;20175;-79
2023/07/26 10:24:25;;;;;;;4.93;1.90;;;19.10;99.90;;;;;;4983663;28;20093;-80
2023/07/26 10:26:52;;;;;;;4.75;2.03;;;18.80;99.90;;;;;;4989060;28;20030;-80
2023/07/26 10:29:19;;;;;;;3.08;1.90;;;18.50;99.90;;;;;;4994569;28;20030;-80
2023/07/26 10:31:46;;;;;;;2.92;1.80;;;18.60;99.90;;;;;;4992204;28;20055;-79
2023/07/26 10:34:20;;;;;;;4.88;1.92;;;19.00;99.90;;;;;;4993613;28;20077;-81
2023/07/26 10:36:46;;;;;;;5.28;1.98;;;19.10;99.90;;;;;;4992038;28;21518;-78
2023/07/26 10:39:12;;;;;;;4.70;1.80;;;19.20;99.90;;;;;;4990521;28;20128;-79
2023/07/26 10:41:47;;;;;;;3.58;1.50;;;19.40;99.90;;;;;;4993257;28;20030;-79
2023/07/26 10:44:13;;;;;;;4.60;1.42;;;19.40;99.90;;;;;;4991213;28;20072;-82
2023/07/26 10:46:47;;;;;;;5.25;1.73;;;19.60;99.90;;;;;;4985501;28;20417;-83
2023/07/26 10:49:33;;;;;;;4.68;2.05;;;19.80;99.90;;;;;;4988569;28;20038;-82
2023/07/26 10:52:02;;;;;;;3.58;1.90;;;20.00;99.90;;;;;;4989347;28;20397;-82
2023/07/26 10:54:38;;;;;;;4.90;1.50;;;19.90;99.90;;;;;;4989348;28;20026;-82
2023/07/26 10:57:20;;;;;;;3.05;1.45;;;20.00;99.90;;;;;;4977469;28;20053;-81
2023/07/26 10:59:59;;;;;;;3.58;1.38;;;20.10;99.90;;;;;;4978626;28;20061;-83
2023/07/26 11:02:55;;;;;;;5.65;1.85;;;20.50;99.90;;;;;;4980079;28;20986;-83
2023/07/26 11:05:22;;;;;;;2.70;1.40;;;20.60;99.90;;;;;;4978504;28;20039;-85
2023/07/26 11:07:59;;;;;;;3.35;1.42;;;20.80;99.90;;;;;;4978840;28;20507;-82
2023/07/26 11:10:31;;;;;;;4.40;1.60;;;21.00;99.90;;;;;;4979624;28;20033;-88
2023/07/26 11:13:32;;;;;;;5.75;1.67;;;21.00;99.90;;;;;;4981118;28;20121;-86
2023/07/26 11:16:01;;;;;;;4.97;1.65;;;20.70;99.90;;;;;;4979621;28;20132;-89
2023/07/26 11:18:26;;;;;;;4.60;1.50;;;20.60;99.90;;;;;;4978570;28;20030;-87
2023/07/26 11:20:54;;;;;;;4.38;1.60;;;20.30;99.90;;;;;;4977918;28;20089;-87
2023/07/26 11:23:25;;;;;;;5.88;1.60;;;20.30;99.90;;;;;;4979882;28;20500;-88
2023/07/26 11:25:53;;;;;;;2.33;1.50;;;20.10;99.90;;;;;;4979473;28;20034;-87
2023/07/26 11:28:19;;;;;;;5.63;1.60;;;19.90;99.90;;;;;;4978186;28;20125;-88
2023/07/26 11:30:52;;;;;;;7.43;2.13;;;19.50;99.90;;;;;;4976292;28;20027;-86
2023/07/26 11:33:28;;;;;;;7.72;3.10;;;19.10;99.90;;;;;;4977749;28;20603;-86
2023/07/26 11:35:54;;;;;;;6.53;3.50;;;18.00;99.90;;;;;;4979798;28;20044;-87
2023/07/26 11:38:20;;;;;;;5.82;2.75;;;17.10;99.90;;;;;;4979243;28;20061;-87
2023/07/26 11:40:46;;;;;;;3.88;2.38;;;16.40;99.90;;;;;;4977593;28;20666;-87
2023/07/26 11:43:12;;;;;;;6.35;2.42;;;15.90;99.90;;;;;;4977092;28;20042;-86
2023/07/26 11:45:41;;;;;;;4.03;2.42;;;15.60;99.90;;;;;;4978557;28;20023;-87
2023/07/26 11:48:09;;;;;;;4.68;2.33;;;15.40;99.90;;;;;;4977309;28;20022;-87
2023/07/26 11:50:36;;;;;;;7.28;2.75;;;15.30;99.90;;;;;;4979461;28;20463;-88
2023/07/26 11:53:06;;;;;;;4.50;2.42;;;15.20;99.90;;;;;;4979259;28;20057;-88
2023/07/26 11:55:32;;;;;;;4.78;2.45;;;15.00;99.90;;;;;;4977103;28;20066;-87
2023/07/26 11:58:06;;;;;;;5.60;2.40;;;15.00;99.90;;;;;;4977338;28;20026;-88
2023/07/26 12:00:33;;;;;;;5.13;2.40;;;15.00;99.90;;;;;;4977460;28;20033;-88
2023/07/26 12:03:01;;;;;;;4.25;1.90;;;15.00;99.90;;;;;;4974599;28;20029;-87
2023/07/26 12:05:28;;;;;;;6.20;1.83;;;14.90;99.90;;;;;;4976596;28;20084;-87
2023/07/26 12:07:58;;;;;;;4.57;1.77;;;14.90;99.90;;;;;;4976021;28;20683;-88
2023/07/26 12:10:38;;;;;;;3.53;1.90;;;14.70;99.90;;;;;;4974041;28;20116;-87
2023/07/26 12:13:08;;;;;;;3.10;1.90;;;14.60;99.90;;;;;;4976409;28;20464;-87
2023/07/26 12:16:00;;;;;;;4.70;1.90;;;14.60;99.90;;;;;;4976019;28;20034;-88
2023/07/26 12:18:26;;;;;;;4.72;2.03;;;14.70;99.90;;;;;;4975637;28;20022;-87
2023/07/26 12:21:07;;;;;;;3.78;1.90;;;14.80;99.90;;;;;;4973018;28;20026;-88
2023/07/26 12:23:57;;;;;;;4.65;2.30;;;14.90;99.90;;;;;;4971958;28;20073;-88
2023/07/26 12:26:29;;;;;;;3.88;2.13;;;15.10;99.90;;;;;;4984375;28;20499;-89
2023/07/26 12:28:55;;;;;;;4.20;2.20;;;15.10;99.90;;;;;;4984954;28;21395;-87
2023/07/26 12:31:29;;;;;;;3.67;1.90;;;15.20;99.90;;;;;;4982657;28;20060;-89
2023/07/26 12:34:06;;;;;;;4.87;2.17;;;15.10;99.90;;;;;;4984126;28;20044;-87
2023/07/26 12:36:37;;;;;;;2.13;1.73;;;15.10;99.90;;;;;;4974366;28;20030;-87
2023/07/26 12:39:09;;;;;;;3.75;1.88;;;15.00;99.90;;;;;;4980285;28;20156;-87
2023/07/26 12:41:36;;;;;;;3.08;1.83;;;15.10;99.90;;;;;;4983881;28;21047;-89